aviador You're here:

YBCS Decoded Metar

CAIRNS in AUSTRALIA
Report Time2018-06-21 12:00:00
UTC Time2018-06-21 12:33:02
Flight Rules vfr VFR
Wind170° at 08 kt
W.Decomp.*RWY 15: 7.8 kt HW 1.8 kt RCW
RWY 12: 5.9 kt HW 5.5 kt RCW
W.Rank170° ranks 1
Current wind is below 170° avg. (8.4)
Visibility9999 m
Phenomena:N/A
Clouds:N/A
Expected CloudBase > 2,400 ft AGL from Temp-Dew spread
CeilingNone
Temp19°C (ISA +4)
Dew Point13°C (68% RH)
AAT17.0°C
QNH1020 hPa
Density Alt463 ft
Elevation23 ft
Report Wrong Elevation
Raw Report
METAR YBCS 211200Z 17008KT CAVOK 19/13 Q1020
NOSIG=

Extra information for YBCS:More info

Metar Taf Metar & Taf Last 4 Metars F.Rules Stats Wind Profile Meteogram Temp Stats Airport Information Weather charts Add Link Nearby VenuesMetar ALERT Operation Metar Decoded Social comments